Main page
METAR-TAF:

METAR-TAF

Airports :

Teesside International Airport

Durham, England

latitude: 54-31N, longitude: 001-25W, elevation: 37 m

Current weather observation

The report was made 1 hour and 27 minutes ago, at 17:50 UTC
Wind 14 kt from the West/Southwest
Temperature 20°C
Humidity 68%
Pressure 1014 hPa
Visibility 10 km or more
Few clouds at a height of 4300 ft

METAR: EGNV 241750Z 24014KT 9999 FEW043 20/14 Q1014

Time: 20:17 (19:17 UTC)

Forecast

The report was made 1 hour and 12 minutes ago, at 18:05 UTC
Forecast valid from 24 at 18 UTC to 24 at 21 UTC
Wind 12 kt from the Southwest
Visibility 10 km or more
Few clouds at a height of 2000 ft
Scattered clouds at a height of 3000 ft
Probability 40% :
Temporary
from 24 at 18 UTC to 24 at 21 UTC
Visibility: 7000 m
rain,

TAF: EGNV 241805Z 2418/2421 22012KT 9999 FEW020 SCT030 PROB40 TEMPO 2418/2421 7000 RA

Weather observations and forecasts of more than 4000 airports (METAR and TAF reports).

The available stations are represented by yellow and red dots on the map.

Hover mouse over dot to see the name of the station.

Then click to see weather observations and forecasts.

To change the map : click on the green buttons with a black cross to zoom in, on the green button with a dash to zoom out, or on the green arrows for adjacent maps.


METAR-TAF: